Greenwood, Virginia
Current Conditions -  °F | °C
As of 11:15 AM on Thursday 30 Oct 2014 (Local Time) from KW13 Reporting Station
Clear Clear  
Wind Chill: 47°   Ceiling: Unl
Heat Index: 50°   Visibility: 10mi
Dew Point: 37°   Wind: 7mph
Humidity: 62%   Direction: 20°NNE
Pressure: 30.08"   Gusts: NA
Location:  38.05°N, 78.77°W
Report Text: KW13 301515Z AUTO 02006KT 10SM CLR 10/03 A3008 RMK AO1 T00980029
Loading
Personal Weather Stations






























Interactive Weather Map New forecast layout! Learn more

10-Day Weather Forecast

Advertisements
Track Severe Weather on mobile